Weather at Bremen Airport

Public forecast

Using degrees Celsius for public forecast. Weather courtesy of forecast.io.

Current aviation weather report (METAR) for Bremen Airport

Retrieved 2021/08/02 10:20 UTC (38 minutes ago):

EDDW 021020Z 28008KT 9999 -SHRA SCT027 15/11 Q1012 NOSIG

Aviation forecast (TAF) for Bremen Airport

Retrieved 2021/08/02 06:27 UTC (5 hours ago):

TAF EDDW 020500Z 0206/0306 25005KT CAVOK BECMG 0206/0208 26010KT FM021100 29012G22KT 9999 SCT025TCU SCT045 BECMG 0216/0218 33008KT BECMG 0219/0221 VRB03KT TEMPO 0300/0305 1200 BCFG PROB40 TEMPO 0301/0303 0400 FG